Southampton, NY

11:02 AM EST on November 24, 2014 (GMT -0500)
The Gabreski | Change Station
CLOSE
Current Station
Airport
Location: Westhampton Beach,
Elevation: 66 ft
Nearby Weather Stations

Elev 66 ft 40.85 °N, 72.62 °W | Updated 9 minutes ago

Fog
Fog
62 °F
Feels Like 62 °F
N
13
Wind Variable Wind from SSW
Gusts 26 mph

Today
High -- | Low -- °F
--% Chance of Precip.
Yesterday
High -- | Low -- °F
Precip. -- in
6:47 AM 4:25 PM
Waxing Crescent, 6% visible
Pressure 29.73 in
Visibility 1.0 miles
Clouds Overcast 200 ft
Dew Point 60 °F
Humidity 93%
Rainfall 0.63 in
Snow Depth Not available.
UV 1 out of 12
Pollen .10 out of 12
Air Quality Not available.
Flu Activity Not available.
METAR KFOK 241553Z 20011G23KT 1SM BR OVC002 17/16 A2973 RMK AO2 PK WND 20028/1522 RAE35 SLP068 P0001 T01670156

More Conditions Fewer Conditions

Pressure 29.73 in
Visibility 1.0 miles
Clouds Overcast 200 ft
Dew Point 60 °F
Humidity 93%
Rainfall 0.63 in
Snow Depth Not available.
UV 1 out of 12
Pollen .10 out of 12
Air Quality Not available.
Flu Activity Not available.
METAR KFOK 241553Z 20011G23KT 1SM BR OVC002 17/16 A2973 RMK AO2 PK WND 20028/1522 RAE35 SLP068 P0001 T01670156

More Conditions Fewer Conditions

10-Day Weather Forecast

Almanac

Astronomy

Nov. 24, 2014 Rise Set
Actual Time
Civil Twilight
Nautical Twilight
Astronomical Twilight
Moon
Length of Visible Light
Length of Day
Tomorrow will be .
, % of the Moon is Illuminated

Today's Extremes

State Highs State Lows

Community

WunderPhotos

Upload Photos

1,773,364 photos uploaded!

WunderBlogs® & News

Nearby

Air Quality

  Air Quality AQ Index Pollutant
Not available.

Snow Depth

Station Depth Elevation

Earthquake Activity

City Distance Mag. Time & Date
Minimum magnitude displayed is 2.5.

Coastal Water Temperatures

Place Temperature

Nearby Weather Stations